createdAt,value
2019-04-04T00:01:57.290Z,97.26
2019-04-04T00:03:57.252Z,97.33
2019-04-04T00:05:57.363Z,97.59
2019-04-04T00:07:58.103Z,97.84
2019-04-04T00:09:57.071Z,97.69
2019-04-04T00:11:57.191Z,97.77
2019-04-04T00:13:57.115Z,98.02
2019-04-04T00:15:57.108Z,97.60
2019-04-04T00:17:57.242Z,97.96
2019-04-04T00:19:58.990Z,97.92
2019-04-04T00:21:57.353Z,98.04
2019-04-04T00:23:57.154Z,98.08
2019-04-04T00:25:57.184Z,97.96
2019-04-04T00:27:57.190Z,98.10
2019-04-04T00:29:57.003Z,97.94
2019-04-04T00:31:57.206Z,98.15
2019-04-04T00:33:57.006Z,98.34
2019-04-04T00:35:57.397Z,97.88
2019-04-04T00:37:57.138Z,98.22
2019-04-04T00:39:57.154Z,98.18
2019-04-04T00:41:57.161Z,98.12
2019-04-04T00:43:57.380Z,98.29
2019-04-04T00:45:57.075Z,98.48
2019-04-04T00:47:57.112Z,98.14
2019-04-04T00:49:57.108Z,98.55
2019-04-04T00:51:57.047Z,98.07
2019-04-04T00:53:57.125Z,98.31
2019-04-04T00:55:57.235Z,98.24
2019-04-04T00:57:57.358Z,98.22
2019-04-04T00:59:57.052Z,98.70
2019-04-04T01:01:57.617Z,98.46
2019-04-04T01:04:00.323Z,98.38
2019-04-04T01:05:57.100Z,98.52
2019-04-04T01:07:57.409Z,98.56
2019-04-04T01:09:57.221Z,98.43
2019-04-04T01:11:57.226Z,98.60
2019-04-04T01:13:57.923Z,98.40
2019-04-04T01:15:57.455Z,98.46
2019-04-04T01:17:57.098Z,98.66
2019-04-04T01:19:57.280Z,98.77
2019-04-04T01:21:57.192Z,98.81
2019-04-04T01:23:58.309Z,98.55
2019-04-04T01:25:57.214Z,98.25
2019-04-04T01:27:57.636Z,98.62
2019-04-04T01:29:57.046Z,98.79
2019-04-04T01:31:57.351Z,98.60
2019-04-04T01:33:57.165Z,98.62
2019-04-04T01:35:57.373Z,98.87
2019-04-04T01:37:58.244Z,98.35
2019-04-04T01:39:57.195Z,98.90
2019-04-04T01:41:57.303Z,98.98
2019-04-04T01:44:04.875Z,98.57
2019-04-04T01:45:57.135Z,98.61
2019-04-04T01:47:57.241Z,98.39
2019-04-04T01:49:57.245Z,98.58
2019-04-04T01:51:57.979Z,98.46
2019-04-04T01:53:57.113Z,98.53
2019-04-04T01:55:57.483Z,98.61
2019-04-04T01:57:57.222Z,99.05
2019-04-04T01:59:57.507Z,99.15
2019-04-04T02:01:57.317Z,98.84
2019-04-04T02:03:57.272Z,98.99
2019-04-04T02:05:58.257Z,99.04
2019-04-04T02:08:00.550Z,99.09
2019-04-04T02:09:57.157Z,98.99
2019-04-04T02:11:57.175Z,99.00
2019-04-04T02:13:57.179Z,99.16
2019-04-04T02:15:57.194Z,98.86
2019-04-04T02:17:57.418Z,99.08
2019-04-04T02:19:57.224Z,99.03
2019-04-04T02:21:57.854Z,98.83
2019-04-04T02:23:57.448Z,98.74
2019-04-04T02:25:57.166Z,99.04
2019-04-04T02:27:57.466Z,98.67
2019-04-04T02:29:57.368Z,99.23
2019-04-04T02:31:57.035Z,99.27
2019-04-04T02:33:57.114Z,99.32
2019-04-04T02:35:57.156Z,98.91
2019-04-04T02:37:57.323Z,99.06
2019-04-04T02:39:57.538Z,98.97
2019-04-04T02:41:57.200Z,99.07
2019-04-04T02:43:59.413Z,98.89
2019-04-04T02:45:57.318Z,99.41
2019-04-04T02:47:57.383Z,99.17
2019-04-04T02:50:01.126Z,99.35
2019-04-04T02:51:57.407Z,98.84
2019-04-04T02:53:57.027Z,99.30
2019-04-04T02:55:57.192Z,99.30
2019-04-04T02:57:57.154Z,99.48
2019-04-04T02:59:57.260Z,99.56
2019-04-04T03:01:57.374Z,99.40
2019-04-04T03:03:57.478Z,99.35
2019-04-04T03:05:57.317Z,99.11
2019-04-04T03:07:57.399Z,99.17
2019-04-04T03:09:57.731Z,99.13
2019-04-04T03:11:57.221Z,99.10
2019-04-04T03:13:57.234Z,99.41
2019-04-04T03:15:57.444Z,99.49
2019-04-04T03:17:57.251Z,99.28
2019-04-04T03:19:57.361Z,99.50
2019-04-04T03:21:57.278Z,99.72
2019-04-04T03:23:57.468Z,99.55
2019-04-04T03:25:57.242Z,99.73
2019-04-04T03:27:58.261Z,99.57
2019-04-04T03:29:57.322Z,99.80
2019-04-04T03:31:57.412Z,99.78
2019-04-04T03:33:57.299Z,99.49
2019-04-04T03:35:57.545Z,99.79
2019-04-04T03:37:57.572Z,99.52
2019-04-04T03:39:57.280Z,99.46
2019-04-04T03:41:57.398Z,99.62
2019-04-04T03:43:57.045Z,99.60
2019-04-04T03:46:00.371Z,99.79
2019-04-04T03:47:57.298Z,99.50
2019-04-04T03:49:58.017Z,99.65
2019-04-04T03:51:57.361Z,99.81
2019-04-04T03:53:57.091Z,99.37
2019-04-04T03:55:59.941Z,100.00
2019-04-04T03:57:57.291Z,99.84
2019-04-04T03:59:57.294Z,99.71
2019-04-04T04:01:57.304Z,100.00
2019-04-04T04:03:57.225Z,99.85
2019-04-04T04:05:57.526Z,100.00
2019-04-04T04:07:57.208Z,99.80
2019-04-04T04:09:59.816Z,99.90
2019-04-04T04:11:57.361Z,99.96
2019-04-04T04:13:57.383Z,99.80
2019-04-04T04:15:57.397Z,99.95
2019-04-04T04:17:57.255Z,99.76
2019-04-04T04:19:57.201Z,99.77
2019-04-04T04:21:57.422Z,99.40
2019-04-04T04:23:58.027Z,99.33
2019-04-04T04:25:57.365Z,99.69
2019-04-04T04:27:57.352Z,99.98
2019-04-04T04:30:00.119Z,99.61
2019-04-04T04:31:57.475Z,99.75
2019-04-04T04:34:00.766Z,100.00
2019-04-04T04:35:57.507Z,99.89
2019-04-04T04:37:57.308Z,100.00
2019-04-04T04:39:57.298Z,99.86
2019-04-04T04:41:57.532Z,99.75
2019-04-04T04:43:57.550Z,100.00
2019-04-04T04:45:57.292Z,99.96
2019-04-04T04:47:57.584Z,100.00
2019-04-04T04:49:57.382Z,99.76
2019-04-04T04:51:57.387Z,99.82
2019-04-04T04:53:57.513Z,99.97
2019-04-04T04:55:59.600Z,99.97
2019-04-04T04:57:57.318Z,100.00
2019-04-04T04:59:57.435Z,99.84
2019-04-04T05:01:57.301Z,99.58
2019-04-04T05:03:57.462Z,100.00
2019-04-04T05:05:57.470Z,99.84
2019-04-04T05:07:57.249Z,100.00
2019-04-04T05:09:57.513Z,99.89
2019-04-04T05:11:57.712Z,99.87
2019-04-04T05:13:58.124Z,100.00
2019-04-04T05:15:57.440Z,100.00
2019-04-04T05:17:57.436Z,100.00
2019-04-04T05:19:57.464Z,99.80
2019-04-04T05:21:57.667Z,99.83
2019-04-04T05:23:57.312Z,100.00
2019-04-04T05:25:57.590Z,100.00
2019-04-04T05:27:57.564Z,100.00
2019-04-04T05:29:57.339Z,100.00
2019-04-04T05:31:57.519Z,99.93
2019-04-04T05:33:59.049Z,100.00
2019-04-04T05:35:57.551Z,100.00
2019-04-04T05:37:57.498Z,99.79
2019-04-04T05:39:57.279Z,100.00
2019-04-04T05:41:59.904Z,99.83
2019-04-04T05:43:57.274Z,100.00
2019-04-04T05:45:57.598Z,100.00
2019-04-04T05:47:59.717Z,99.62
2019-04-04T05:49:57.522Z,99.68
2019-04-04T05:51:57.440Z,100.00
2019-04-04T05:53:57.551Z,99.60
2019-04-04T05:55:57.559Z,99.94
2019-04-04T05:57:57.771Z,99.92
2019-04-04T05:59:57.347Z,99.67
2019-04-04T06:01:57.512Z,99.94
2019-04-04T06:03:57.503Z,100.00
2019-04-04T06:05:59.212Z,99.69
2019-04-04T06:07:57.631Z,100.00
2019-04-04T06:09:57.173Z,99.62
2019-04-04T06:11:57.659Z,100.00
2019-04-04T06:13:59.114Z,100.00
2019-04-04T06:15:57.522Z,99.81
2019-04-04T06:17:57.588Z,99.99
2019-04-04T06:19:57.335Z,100.00
2019-04-04T06:21:57.513Z,99.73
2019-04-04T06:23:57.724Z,99.63
2019-04-04T06:25:57.327Z,100.00
2019-04-04T06:27:57.384Z,100.00
2019-04-04T06:29:57.251Z,100.00
2019-04-04T06:31:59.967Z,100.00
2019-04-04T06:33:57.471Z,99.69
2019-04-04T06:35:57.483Z,99.81
2019-04-04T06:37:57.595Z,99.90
2019-04-04T06:39:58.817Z,99.78
2019-04-04T06:41:57.412Z,99.83
2019-04-04T06:43:57.629Z,99.68
2019-04-04T06:45:57.439Z,99.73
2019-04-04T06:47:58.226Z,99.58
2019-04-04T06:49:57.466Z,99.21
2019-04-04T06:51:57.483Z,99.09
2019-04-04T06:53:59.555Z,99.19
2019-04-04T06:55:58.179Z,99.72
2019-04-04T06:57:57.427Z,99.17
2019-04-04T06:59:57.527Z,99.40
2019-04-04T07:01:57.534Z,99.14
2019-04-04T07:03:59.478Z,98.79
2019-04-04T07:05:57.557Z,98.71
2019-04-04T07:07:57.437Z,98.97
2019-04-04T07:09:57.587Z,99.25
2019-04-04T07:11:57.488Z,99.06
2019-04-04T07:13:59.089Z,98.60
2019-04-04T07:16:07.031Z,98.91
2019-04-04T07:17:57.426Z,98.97
2019-04-04T07:19:57.514Z,99.15
2019-04-04T07:21:57.558Z,98.85
2019-04-04T07:23:59.439Z,98.94
2019-04-04T07:25:57.466Z,99.05
2019-04-04T07:27:57.580Z,98.87
2019-04-04T07:29:57.388Z,98.50
2019-04-04T07:31:57.445Z,98.79
2019-04-04T07:33:57.546Z,98.75
2019-04-04T07:35:57.547Z,98.77
2019-04-04T07:37:57.735Z,98.67
2019-04-04T07:39:57.451Z,98.43
2019-04-04T07:41:57.856Z,98.21
2019-04-04T07:43:58.679Z,98.26
2019-04-04T07:45:59.936Z,98.51
2019-04-04T07:47:57.545Z,98.29
2019-04-04T07:49:57.712Z,98.40
2019-04-04T07:51:57.618Z,98.12
2019-04-04T07:53:57.431Z,98.36
2019-04-04T07:55:57.646Z,97.76
2019-04-04T07:57:57.556Z,97.83
2019-04-04T07:59:57.775Z,98.08
2019-04-04T08:01:57.688Z,98.04
2019-04-04T08:03:57.596Z,98.12
2019-04-04T08:05:57.809Z,98.32
2019-04-04T08:07:57.609Z,97.63
2019-04-04T08:09:57.752Z,97.65
2019-04-04T08:11:57.575Z,97.41
2019-04-04T08:13:57.477Z,97.46
2019-04-04T08:15:57.348Z,97.17
2019-04-04T08:17:57.769Z,97.14
2019-04-04T08:19:59.891Z,96.98
2019-04-04T08:21:57.536Z,96.90
2019-04-04T08:23:57.602Z,96.62
2019-04-04T08:25:57.550Z,96.31
2019-04-04T08:27:57.626Z,96.24
2019-04-04T08:29:57.745Z,96.37
2019-04-04T08:31:57.547Z,96.53
2019-04-04T08:33:57.764Z,96.23
2019-04-04T08:36:05.771Z,96.04
2019-04-04T08:37:57.684Z,95.51
2019-04-04T08:39:57.690Z,95.96
2019-04-04T08:41:57.599Z,95.30
2019-04-04T08:43:57.721Z,95.66
2019-04-04T08:45:57.533Z,95.76
2019-04-04T08:47:57.852Z,95.58
2019-04-04T08:49:57.449Z,95.33
2019-04-04T08:51:57.503Z,95.20
2019-04-04T08:53:57.780Z,95.45
2019-04-04T08:55:57.632Z,95.22
2019-04-04T08:57:57.648Z,95.16
2019-04-04T08:59:57.376Z,95.36
2019-04-04T09:01:57.620Z,95.54
2019-04-04T09:03:57.831Z,95.43
2019-04-04T09:05:57.638Z,95.10
2019-04-04T09:07:57.651Z,94.90
2019-04-04T09:09:57.659Z,94.94
2019-04-04T09:11:57.622Z,95.18
2019-04-04T09:13:57.790Z,94.73
2019-04-04T09:15:57.609Z,94.59
2019-04-04T09:17:57.560Z,94.91
2019-04-04T09:19:57.629Z,94.47
2019-04-04T09:21:57.839Z,94.78
2019-04-04T09:24:00.470Z,94.36
2019-04-04T09:26:05.610Z,94.05
2019-04-04T09:27:57.616Z,93.97
2019-04-04T09:29:57.786Z,93.93
2019-04-04T09:31:57.337Z,94.51
2019-04-04T09:33:57.583Z,93.83
2019-04-04T09:35:57.451Z,94.12
2019-04-04T09:37:57.626Z,94.07
2019-04-04T09:39:57.741Z,93.80
2019-04-04T09:41:57.755Z,93.43
2019-04-04T09:43:57.771Z,93.58
2019-04-04T09:45:57.525Z,93.87
2019-04-04T09:47:57.675Z,93.42
2019-04-04T09:49:57.799Z,92.90
2019-04-04T09:51:57.683Z,93.35
2019-04-04T09:53:57.784Z,92.93
2019-04-04T09:55:57.832Z,92.57
2019-04-04T09:57:57.949Z,92.46
2019-04-04T09:59:57.616Z,92.41
2019-04-04T10:01:57.766Z,91.91
2019-04-04T10:03:57.681Z,91.71
2019-04-04T10:05:58.203Z,91.78
2019-04-04T10:07:57.592Z,91.67
2019-04-04T10:09:57.814Z,91.40
2019-04-04T10:11:57.613Z,90.94
2019-04-04T10:13:57.947Z,90.81
2019-04-04T10:15:57.742Z,90.83
2019-04-04T10:17:57.860Z,90.59
2019-04-04T10:19:57.668Z,90.68
2019-04-04T10:21:57.623Z,90.75
2019-04-04T10:23:57.687Z,90.87
2019-04-04T10:25:57.724Z,90.79
2019-04-04T10:27:57.919Z,90.39
2019-04-04T10:29:58.038Z,90.65
2019-04-04T10:31:57.857Z,90.60
2019-04-04T10:33:57.638Z,90.72
2019-04-04T10:35:57.392Z,90.42
2019-04-04T10:37:57.664Z,90.48
2019-04-04T10:39:57.627Z,90.31
2019-04-04T10:41:57.898Z,89.95
2019-04-04T10:43:57.639Z,90.11
2019-04-04T10:45:57.507Z,89.98
2019-04-04T10:47:57.641Z,90.39
2019-04-04T10:49:58.572Z,89.84
2019-04-04T10:51:57.744Z,89.84
2019-04-04T10:53:57.865Z,90.25
2019-04-04T10:55:57.671Z,89.82
2019-04-04T10:57:57.603Z,89.33
2019-04-04T10:59:57.901Z,89.09
2019-04-04T11:02:00.661Z,89.12
2019-04-04T11:03:57.818Z,89.29
2019-04-04T11:05:57.775Z,89.49
2019-04-04T11:07:57.845Z,89.29
2019-04-04T11:09:57.857Z,89.85
2019-04-04T11:11:57.770Z,89.43
2019-04-04T11:13:57.802Z,89.32
2019-04-04T11:15:57.618Z,89.78
2019-04-04T11:17:58.102Z,89.67
2019-04-04T11:19:58.075Z,90.03
2019-04-04T11:21:57.640Z,89.58
2019-04-04T11:23:57.734Z,89.67
2019-04-04T11:25:57.706Z,89.41
2019-04-04T11:27:57.755Z,89.15
2019-04-04T11:29:57.723Z,89.06
2019-04-04T11:31:57.880Z,89.52
2019-04-04T11:33:58.099Z,89.31
2019-04-04T11:35:57.902Z,89.36
2019-04-04T11:37:57.821Z,89.38
2019-04-04T11:39:57.927Z,89.36
2019-04-04T11:41:57.526Z,89.53
2019-04-04T11:43:58.066Z,89.97
2019-04-04T11:45:57.685Z,89.75
2019-04-04T11:47:57.867Z,89.21
2019-04-04T11:49:57.782Z,89.73
2019-04-04T11:51:57.719Z,89.58
2019-04-04T11:53:57.956Z,89.30
2019-04-04T11:55:57.843Z,89.69
2019-04-04T11:57:57.726Z,89.69
2019-04-04T11:59:57.783Z,89.46
2019-04-04T12:01:57.855Z,89.78
2019-04-04T12:03:58.162Z,89.89
2019-04-04T12:05:57.574Z,90.26
2019-04-04T12:07:57.890Z,89.88
2019-04-04T12:10:07.388Z,90.01
2019-04-04T12:11:58.019Z,90.13
2019-04-04T12:13:57.817Z,90.09
2019-04-04T12:15:57.943Z,90.01
2019-04-04T12:17:57.944Z,89.66
2019-04-04T12:19:57.757Z,89.91
2019-04-04T12:21:57.772Z,89.70
2019-04-04T12:23:57.790Z,90.26
2019-04-04T12:25:57.725Z,89.97
2019-04-04T12:27:57.800Z,89.95
2019-04-04T12:29:57.808Z,89.94
2019-04-04T12:31:58.026Z,90.10
2019-04-04T12:33:57.824Z,90.15
2019-04-04T12:35:57.956Z,90.27
2019-04-04T12:37:57.732Z,89.99
2019-04-04T12:39:57.779Z,89.97
2019-04-04T12:42:00.421Z,90.16
2019-04-04T12:43:57.538Z,90.14
2019-04-04T12:45:57.798Z,90.15
2019-04-04T12:47:58.013Z,89.71
2019-04-04T12:49:57.762Z,90.30
2019-04-04T12:51:57.833Z,90.00
2019-04-04T12:53:58.052Z,89.95
2019-04-04T12:55:57.654Z,89.68
2019-04-04T12:57:58.083Z,89.67
2019-04-04T12:59:57.949Z,89.90
2019-04-04T13:01:57.813Z,89.79
2019-04-04T13:03:57.802Z,89.94
2019-04-04T13:05:57.911Z,90.00
2019-04-04T13:07:57.931Z,90.21
2019-04-04T13:10:10.712Z,89.70
2019-04-04T13:11:57.869Z,89.53
2019-04-04T13:13:57.964Z,89.94
2019-04-04T13:15:57.816Z,89.86
2019-04-04T13:17:57.987Z,90.05
2019-04-04T13:19:58.203Z,89.86
2019-04-04T13:21:58.007Z,90.09
2019-04-04T13:23:57.874Z,90.05
2019-04-04T13:25:57.898Z,89.98
2019-04-04T13:27:57.842Z,90.24
2019-04-04T13:29:57.743Z,90.33
2019-04-04T13:31:57.765Z,90.55
2019-04-04T13:33:57.816Z,90.54
2019-04-04T13:35:57.735Z,90.59
2019-04-04T13:37:57.738Z,90.69
2019-04-04T13:39:57.904Z,90.91
2019-04-04T13:41:57.829Z,90.76
2019-04-04T13:43:57.851Z,90.82
2019-04-04T13:45:57.759Z,90.83
2019-04-04T13:47:57.958Z,91.16
2019-04-04T13:49:57.973Z,91.27
2019-04-04T13:51:57.887Z,91.29
2019-04-04T13:53:57.855Z,91.36
2019-04-04T13:55:59.153Z,91.50
2019-04-04T13:57:57.782Z,91.31
2019-04-04T14:00:00.692Z,91.51
2019-04-04T14:01:58.242Z,91.62
2019-04-04T14:03:57.785Z,91.64
2019-04-04T14:05:58.145Z,91.55
2019-04-04T14:08:00.304Z,91.31
2019-04-04T14:09:57.876Z,91.62
2019-04-04T14:11:57.887Z,91.39
2019-04-04T14:13:58.925Z,91.33
2019-04-04T14:15:57.921Z,91.43
2019-04-04T14:17:57.881Z,91.50
2019-04-04T14:19:57.760Z,91.40
2019-04-04T14:21:57.844Z,91.23
2019-04-04T14:23:58.062Z,91.46
2019-04-04T14:25:59.974Z,91.20
2019-04-04T14:27:58.574Z,91.04
2019-04-04T14:29:57.891Z,91.00
2019-04-04T14:31:57.786Z,90.96
2019-04-04T14:33:58.029Z,90.54
2019-04-04T14:36:00.478Z,90.47
2019-04-04T14:37:57.847Z,90.41
2019-04-04T14:39:57.739Z,89.93
2019-04-04T14:41:57.876Z,90.13
2019-04-04T14:43:59.934Z,89.93
2019-04-04T14:45:57.836Z,89.80
2019-04-04T14:48:00.875Z,89.87
2019-04-04T14:49:58.214Z,89.80
2019-04-04T14:51:57.983Z,89.31
2019-04-04T14:53:58.236Z,89.44
2019-04-04T14:56:00.820Z,89.36
2019-04-04T14:57:57.950Z,88.98
2019-04-04T14:59:58.027Z,88.66
2019-04-04T15:01:57.761Z,88.36
2019-04-04T15:03:57.890Z,88.22
2019-04-04T15:06:00.513Z,88.04
2019-04-04T15:08:00.835Z,88.20
2019-04-04T15:09:58.027Z,87.96
2019-04-04T15:11:58.238Z,88.02
2019-04-04T15:13:57.946Z,88.00
2019-04-04T15:16:00.654Z,87.72
2019-04-04T15:17:57.965Z,87.71
2019-04-04T15:19:57.887Z,87.92
2019-04-04T15:22:00.956Z,87.98
2019-04-04T15:23:57.775Z,87.99
2019-04-04T15:25:57.892Z,87.87
2019-04-04T15:28:01.012Z,87.89
2019-04-04T15:29:58.037Z,87.72
2019-04-04T15:31:57.941Z,88.14
2019-04-04T15:33:57.892Z,88.26
2019-04-04T15:35:57.979Z,88.15
2019-04-04T15:37:58.195Z,88.73
2019-04-04T15:39:57.854Z,88.30
2019-04-04T15:41:58.216Z,88.45
2019-04-04T15:44:00.975Z,88.08
2019-04-04T15:45:57.823Z,88.28
2019-04-04T15:47:58.053Z,88.44
2019-04-04T15:49:58.054Z,88.46
2019-04-04T15:51:59.598Z,88.55
2019-04-04T15:54:00.932Z,88.28
2019-04-04T15:55:58.089Z,88.34
2019-04-04T15:57:57.999Z,88.11
2019-04-04T15:59:58.111Z,88.37
2019-04-04T16:01:58.126Z,88.11
2019-04-04T16:03:57.892Z,88.52
2019-04-04T16:05:58.046Z,88.45
2019-04-04T16:07:57.959Z,88.42
2019-04-04T16:09:57.962Z,88.06
2019-04-04T16:11:58.188Z,88.47
2019-04-04T16:13:57.997Z,88.48
2019-04-04T16:15:57.878Z,88.81
2019-04-04T16:17:57.781Z,88.46
2019-04-04T16:19:58.023Z,88.63
2019-04-04T16:21:58.364Z,88.86
2019-04-04T16:23:58.249Z,88.84
2019-04-04T16:25:58.055Z,88.72
2019-04-04T16:27:57.912Z,89.18
2019-04-04T16:29:58.292Z,89.42
2019-04-04T16:32:01.057Z,89.43
2019-04-04T16:33:58.113Z,89.85
2019-04-04T16:35:57.895Z,89.95
2019-04-04T16:37:58.126Z,89.72
2019-04-04T16:40:08.148Z,89.77
2019-04-04T16:42:02.479Z,89.96
2019-04-04T16:43:58.061Z,90.08
2019-04-04T16:45:57.973Z,90.20
2019-04-04T16:47:58.186Z,90.35
2019-04-04T16:49:58.139Z,90.42
2019-04-04T16:51:58.056Z,90.51
2019-04-04T16:53:57.902Z,90.71
2019-04-04T16:55:58.034Z,90.67
2019-04-04T16:57:58.240Z,90.71
2019-04-04T16:59:58.054Z,90.68
2019-04-04T17:01:58.070Z,90.71
2019-04-04T17:04:01.741Z,91.20
2019-04-04T17:05:58.085Z,91.08
2019-04-04T17:07:58.040Z,91.00
2019-04-04T17:09:58.184Z,91.00
2019-04-04T17:11:58.223Z,91.28
2019-04-04T17:13:58.647Z,91.18
2019-04-04T17:15:57.961Z,91.55
2019-04-04T17:17:58.152Z,91.53
2019-04-04T17:19:58.064Z,91.75
2019-04-04T17:21:58.688Z,91.42
2019-04-04T17:23:58.291Z,91.66
2019-04-04T17:25:58.106Z,91.50
2019-04-04T17:27:58.321Z,91.78
2019-04-04T17:29:58.131Z,92.06
2019-04-04T17:31:58.177Z,91.99
2019-04-04T17:33:58.681Z,91.87
2019-04-04T17:35:58.161Z,91.78
2019-04-04T17:37:58.022Z,92.16
2019-04-04T17:39:58.034Z,92.54
2019-04-04T17:41:57.862Z,92.31
2019-04-04T17:43:58.109Z,92.36
2019-04-04T17:45:58.695Z,92.58
2019-04-04T17:47:58.331Z,92.27
2019-04-04T17:49:58.297Z,92.75
2019-04-04T17:51:58.388Z,92.29
2019-04-04T17:53:58.221Z,92.67
2019-04-04T17:55:58.613Z,92.83
2019-04-04T17:57:58.291Z,92.26
2019-04-04T17:59:58.306Z,92.64
2019-04-04T18:01:58.105Z,92.99
2019-04-04T18:03:58.069Z,92.23
2019-04-04T18:05:58.122Z,92.46
2019-04-04T18:07:58.660Z,92.19
2019-04-04T18:09:58.354Z,92.63
2019-04-04T18:11:58.772Z,92.69
2019-04-04T18:13:58.195Z,92.03
2019-04-04T18:15:58.290Z,92.37
2019-04-04T18:17:58.248Z,92.18
2019-04-04T18:19:58.119Z,92.48
2019-04-04T18:21:58.121Z,92.73
2019-04-04T18:23:58.138Z,92.12
2019-04-04T18:25:58.171Z,92.05
2019-04-04T18:27:58.460Z,91.78
2019-04-04T18:29:58.191Z,91.71
2019-04-04T18:31:58.103Z,91.71
2019-04-04T18:33:58.794Z,92.07
2019-04-04T18:35:58.197Z,92.19
2019-04-04T18:37:58.614Z,92.12
2019-04-04T18:39:58.196Z,91.45
2019-04-04T18:41:58.240Z,91.86
2019-04-04T18:43:58.200Z,91.92
2019-04-04T18:45:58.361Z,91.33
2019-04-04T18:47:58.381Z,91.68
2019-04-04T18:49:58.281Z,91.94
2019-04-04T18:51:58.205Z,91.85
2019-04-04T18:53:58.210Z,91.78
2019-04-04T18:55:58.113Z,91.87
2019-04-04T18:57:58.535Z,91.71
2019-04-04T18:59:58.344Z,91.26
2019-04-04T19:01:58.333Z,91.71
2019-04-04T19:03:58.244Z,91.53
2019-04-04T19:05:58.184Z,91.42
2019-04-04T19:07:58.199Z,91.52
2019-04-04T19:09:58.104Z,91.39
2019-04-04T19:11:58.211Z,91.04
2019-04-04T19:13:58.216Z,91.66
2019-04-04T19:15:58.320Z,91.17
2019-04-04T19:17:58.138Z,91.21
2019-04-04T19:19:58.274Z,91.35
2019-04-04T19:21:58.280Z,90.86
2019-04-04T19:23:58.382Z,90.60
2019-04-04T19:25:58.388Z,90.76
2019-04-04T19:27:58.308Z,91.20
2019-04-04T19:29:58.327Z,90.99
2019-04-04T19:31:58.639Z,90.62
2019-04-04T19:33:58.160Z,90.67
2019-04-04T19:35:58.146Z,90.72
2019-04-04T19:38:00.269Z,90.72
2019-04-04T19:39:58.336Z,91.28
2019-04-04T19:41:58.175Z,91.45
2019-04-04T19:43:58.075Z,90.86
2019-04-04T19:45:58.399Z,90.87
2019-04-04T19:47:58.114Z,90.94
2019-04-04T19:49:58.159Z,90.86
2019-04-04T19:51:58.333Z,90.73
2019-04-04T19:53:58.255Z,91.36
2019-04-04T19:55:58.573Z,90.59
2019-04-04T19:57:58.271Z,90.80
2019-04-04T19:59:58.287Z,91.25
2019-04-04T20:01:58.236Z,90.69
2019-04-04T20:03:58.208Z,91.01
2019-04-04T20:05:58.121Z,90.88
2019-04-04T20:07:58.327Z,91.14
2019-04-04T20:09:58.340Z,91.48
2019-04-04T20:11:58.561Z,91.41
2019-04-04T20:13:58.362Z,91.23
2019-04-04T20:15:58.277Z,90.95
2019-04-04T20:17:58.287Z,90.94
2019-04-04T20:19:58.165Z,91.28
2019-04-04T20:21:58.540Z,91.25
2019-04-04T20:23:58.481Z,91.33
2019-04-04T20:25:58.228Z,91.70
2019-04-04T20:27:58.340Z,91.59
2019-04-04T20:29:58.358Z,91.75
2019-04-04T20:31:58.164Z,92.08
2019-04-04T20:34:01.702Z,92.00
2019-04-04T20:35:58.318Z,91.95
2019-04-04T20:37:58.296Z,91.46
2019-04-04T20:39:58.310Z,92.08
2019-04-04T20:41:58.254Z,91.77
2019-04-04T20:43:58.431Z,91.97
2019-04-04T20:45:58.448Z,92.07
2019-04-04T20:47:58.153Z,92.18
2019-04-04T20:49:58.129Z,92.38
2019-04-04T20:51:58.007Z,92.20
2019-04-04T20:53:58.303Z,92.25
2019-04-04T20:55:58.504Z,92.70
2019-04-04T20:57:58.420Z,92.36
2019-04-04T20:59:58.429Z,92.78
2019-04-04T21:01:58.334Z,92.41
2019-04-04T21:03:58.401Z,92.58
2019-04-04T21:05:58.462Z,92.22
2019-04-04T21:07:58.266Z,92.91
2019-04-04T21:09:58.334Z,92.48
2019-04-04T21:11:58.194Z,93.06
2019-04-04T21:13:58.225Z,92.77
2019-04-04T21:15:58.242Z,92.80
2019-04-04T21:17:58.124Z,92.55
2019-04-04T21:19:58.130Z,92.92
2019-04-04T21:21:58.657Z,93.01
2019-04-04T21:23:58.375Z,92.96
2019-04-04T21:25:58.581Z,93.08
2019-04-04T21:27:58.276Z,92.60
2019-04-04T21:29:58.297Z,93.51
2019-04-04T21:31:58.413Z,93.84
2019-04-04T21:33:58.534Z,93.31
2019-04-04T21:35:58.565Z,93.37
2019-04-04T21:37:58.591Z,92.90
2019-04-04T21:39:58.455Z,93.09
2019-04-04T21:41:58.469Z,93.62
2019-04-04T21:44:08.121Z,93.55
2019-04-04T21:45:58.489Z,93.53
2019-04-04T21:47:58.405Z,93.59
2019-04-04T21:49:58.423Z,93.42
2019-04-04T21:51:58.420Z,93.43
2019-04-04T21:53:58.288Z,93.26
2019-04-04T21:55:58.453Z,93.81
2019-04-04T21:57:58.350Z,93.46
2019-04-04T21:59:58.599Z,93.32
2019-04-04T22:01:58.484Z,93.52
2019-04-04T22:03:58.491Z,93.85
2019-04-04T22:05:58.506Z,93.64
2019-04-04T22:07:58.739Z,93.70
2019-04-04T22:09:58.531Z,93.75
2019-04-04T22:11:58.546Z,93.97
2019-04-04T22:13:58.554Z,94.06
2019-04-04T22:15:58.483Z,94.23
2019-04-04T22:17:58.578Z,94.09
2019-04-04T22:19:58.788Z,94.44
2019-04-04T22:21:58.352Z,94.73
2019-04-04T22:23:58.448Z,94.90
2019-04-04T22:25:58.470Z,94.82
2019-04-04T22:27:58.532Z,94.78
2019-04-04T22:29:58.745Z,95.53
2019-04-04T22:31:58.438Z,94.98
2019-04-04T22:33:58.381Z,94.92
2019-04-04T22:35:58.506Z,95.49
2019-04-04T22:37:58.688Z,95.12
2019-04-04T22:39:58.499Z,95.44
2019-04-04T22:41:58.410Z,95.15
2019-04-04T22:44:03.554Z,95.66
2019-04-04T22:45:58.531Z,95.41
2019-04-04T22:47:58.543Z,95.58
2019-04-04T22:49:58.315Z,95.63
2019-04-04T22:51:58.440Z,95.47
2019-04-04T22:53:58.582Z,95.75
2019-04-04T22:55:58.485Z,95.77
2019-04-04T22:57:58.395Z,96.00
2019-04-04T22:59:58.414Z,96.01
2019-04-04T23:01:58.403Z,95.32
2019-04-04T23:03:58.353Z,95.69
2019-04-04T23:05:58.440Z,95.49
2019-04-04T23:07:58.661Z,95.78
2019-04-04T23:09:58.676Z,96.16
2019-04-04T23:11:58.580Z,96.26
2019-04-04T23:13:58.798Z,95.85
2019-04-04T23:15:58.331Z,96.01
2019-04-04T23:17:58.347Z,96.27
2019-04-04T23:19:58.627Z,96.10
2019-04-04T23:21:58.472Z,96.11
2019-04-04T23:23:58.551Z,96.26
2019-04-04T23:25:58.421Z,95.82
2019-04-04T23:27:58.575Z,96.15
2019-04-04T23:29:58.585Z,95.48
2019-04-04T23:31:58.903Z,95.80
2019-04-04T23:33:58.513Z,96.26
2019-04-04T23:35:58.622Z,95.97
2019-04-04T23:37:58.413Z,96.05
2019-04-04T23:39:58.337Z,95.44
2019-04-04T23:41:58.313Z,95.26
2019-04-04T23:43:58.431Z,95.33
2019-04-04T23:45:58.495Z,95.01
2019-04-04T23:47:58.786Z,95.80
2019-04-04T23:49:58.583Z,95.12
2019-04-04T23:51:58.763Z,95.37
2019-04-04T23:53:58.717Z,95.42
2019-04-04T23:55:58.535Z,95.46
2019-04-04T23:57:58.587Z,94.80
2019-04-04T23:59:58.409Z,95.14
